createdAt,value
2017-09-26T00:00:44.165Z,1020.61
2017-09-26T00:01:44.599Z,1020.59
2017-09-26T00:02:45.031Z,1020.63
2017-09-26T00:03:45.472Z,1020.66
2017-09-26T00:04:45.891Z,1020.62
2017-09-26T00:05:46.324Z,1020.68
2017-09-26T00:06:46.758Z,1020.66
2017-09-26T00:07:47.189Z,1020.68
2017-09-26T00:08:47.616Z,1020.66
2017-09-26T00:09:48.054Z,1020.66
2017-09-26T00:10:48.481Z,1020.68
2017-09-26T00:11:48.914Z,1020.68
2017-09-26T00:12:49.347Z,1020.70
2017-09-26T00:13:49.776Z,1020.69
2017-09-26T00:14:50.208Z,1020.70
2017-09-26T00:15:50.638Z,1020.66
2017-09-26T00:16:51.068Z,1020.66
2017-09-26T00:17:51.514Z,1020.70
2017-09-26T00:18:51.932Z,1020.71
2017-09-26T00:19:52.368Z,1020.72
2017-09-26T00:20:52.800Z,1020.71
2017-09-26T00:21:53.228Z,1020.68
2017-09-26T00:22:53.659Z,1020.71
2017-09-26T00:23:54.089Z,1020.71
2017-09-26T00:24:54.529Z,1020.70
2017-09-26T00:25:54.949Z,1020.70
2017-09-26T00:26:55.377Z,1020.68
2017-09-26T00:27:55.816Z,1020.69
2017-09-26T00:28:56.244Z,1020.72
2017-09-26T00:29:56.677Z,1020.70
2017-09-26T00:30:57.106Z,1020.73
2017-09-26T00:31:57.541Z,1020.76
2017-09-26T00:32:57.966Z,1020.71
2017-09-26T00:33:58.409Z,1020.74
2017-09-26T00:34:58.828Z,1020.74
2017-09-26T00:35:59.281Z,1020.71
2017-09-26T00:36:59.703Z,1020.72
2017-09-26T00:38:00.123Z,1020.69
2017-09-26T00:39:00.554Z,1020.72
2017-09-26T00:40:00.992Z,1020.70
2017-09-26T00:41:01.421Z,1020.70
2017-09-26T00:42:01.859Z,1020.73
2017-09-26T00:43:02.282Z,1020.69
2017-09-26T00:44:02.715Z,1020.73
2017-09-26T00:45:03.144Z,1020.72
2017-09-26T00:46:03.571Z,1020.73
2017-09-26T00:47:04.007Z,1020.73
2017-09-26T00:48:04.441Z,1020.75
2017-09-26T00:49:04.914Z,1020.76
2017-09-26T00:50:05.305Z,1020.77
2017-09-26T00:51:05.730Z,1020.79
2017-09-26T00:52:06.164Z,1020.76
2017-09-26T00:53:06.599Z,1020.74
2017-09-26T00:54:07.028Z,1020.73
2017-09-26T00:55:07.460Z,1020.74
2017-09-26T00:56:07.887Z,1020.75
2017-09-26T00:57:08.317Z,1020.74
2017-09-26T00:58:08.751Z,1020.74
2017-09-26T00:59:09.182Z,1020.71
2017-09-26T01:00:09.612Z,1020.78
2017-09-26T01:01:10.042Z,1020.74
2017-09-26T01:02:10.476Z,1020.78
2017-09-26T01:03:10.905Z,1020.74
2017-09-26T01:04:11.334Z,1020.76
2017-09-26T01:05:11.775Z,1020.74
2017-09-26T01:06:12.198Z,1020.78
2017-09-26T01:07:12.625Z,1020.73
2017-09-26T01:08:13.059Z,1020.72
2017-09-26T01:09:13.492Z,1020.77
2017-09-26T01:10:13.921Z,1020.79
2017-09-26T01:11:14.357Z,1020.78
2017-09-26T01:12:14.785Z,1020.79
2017-09-26T01:13:15.220Z,1020.79
2017-09-26T01:14:15.649Z,1020.83
2017-09-26T01:15:16.083Z,1020.81
2017-09-26T01:16:16.511Z,1020.84
2017-09-26T01:17:16.942Z,1020.80
2017-09-26T01:18:17.376Z,1020.78
2017-09-26T01:19:17.803Z,1020.80
2017-09-26T01:20:18.232Z,1020.79
2017-09-26T01:21:18.664Z,1020.79
2017-09-26T01:22:19.099Z,1020.81
2017-09-26T01:23:19.527Z,1020.83
2017-09-26T01:24:19.958Z,1020.86
2017-09-26T01:25:20.393Z,1020.83
2017-09-26T01:26:20.822Z,1020.82
2017-09-26T01:27:21.254Z,1020.85
2017-09-26T01:28:21.683Z,1020.80
2017-09-26T01:29:22.115Z,1020.79
2017-09-26T01:30:22.559Z,1020.76
2017-09-26T01:31:22.977Z,1020.77
2017-09-26T01:32:23.406Z,1020.78
2017-09-26T01:33:23.841Z,1020.81
2017-09-26T01:34:24.281Z,1020.79
2017-09-26T01:35:24.705Z,1020.78
2017-09-26T01:36:25.132Z,1020.78
2017-09-26T01:37:25.576Z,1020.79
2017-09-26T01:38:25.995Z,1020.81
2017-09-26T01:39:26.426Z,1020.84
2017-09-26T01:40:26.854Z,1020.85
2017-09-26T01:41:27.295Z,1020.88
2017-09-26T01:42:27.719Z,1020.89
2017-09-26T01:43:28.149Z,1020.89
2017-09-26T01:44:28.581Z,1020.83
2017-09-26T01:45:29.007Z,1020.90
2017-09-26T01:46:29.449Z,1020.89
2017-09-26T01:47:29.869Z,1020.85
2017-09-26T01:48:30.302Z,1020.87
2017-09-26T01:49:30.732Z,1020.87
2017-09-26T01:50:31.168Z,1020.89
2017-09-26T01:51:31.598Z,1020.91
2017-09-26T01:52:32.037Z,1020.93
2017-09-26T01:53:32.456Z,1020.94
2017-09-26T01:54:32.902Z,1020.96
2017-09-26T01:55:33.320Z,1020.98
2017-09-26T01:56:33.749Z,1020.97
2017-09-26T01:57:34.181Z,1020.96
2017-09-26T01:58:34.614Z,1020.99
2017-09-26T01:59:35.041Z,1020.95
2017-09-26T02:00:35.472Z,1020.96
2017-09-26T02:01:35.903Z,1020.96
2017-09-26T02:02:36.339Z,1020.94
2017-09-26T02:03:36.765Z,1020.93
2017-09-26T02:04:37.198Z,1020.93
2017-09-26T02:05:37.647Z,1020.92
2017-09-26T02:06:38.067Z,1020.90
2017-09-26T02:07:38.489Z,1020.90
2017-09-26T02:08:38.929Z,1020.93
2017-09-26T02:09:39.356Z,1020.90
2017-09-26T02:10:39.783Z,1020.95
2017-09-26T02:11:40.216Z,1020.93
2017-09-26T02:12:40.646Z,1020.98
2017-09-26T02:13:41.081Z,1020.96
2017-09-26T02:14:41.524Z,1020.96
2017-09-26T02:15:41.946Z,1020.98
2017-09-26T02:16:42.369Z,1020.96
2017-09-26T02:17:42.802Z,1020.96
2017-09-26T02:18:43.235Z,1020.95
2017-09-26T02:19:43.665Z,1020.97
2017-09-26T02:20:44.103Z,1020.97
2017-09-26T02:21:44.530Z,1020.95
2017-09-26T02:22:44.955Z,1021.01
2017-09-26T02:23:45.385Z,1020.94
2017-09-26T02:24:45.821Z,1020.94
2017-09-26T02:25:46.250Z,1020.92
2017-09-26T02:26:46.681Z,1020.95
2017-09-26T02:27:47.116Z,1020.96
2017-09-26T02:28:47.544Z,1021.01
2017-09-26T02:29:47.976Z,1021.00
2017-09-26T02:30:48.406Z,1021.01
2017-09-26T02:31:48.847Z,1020.99
2017-09-26T02:32:49.271Z,1021.02
2017-09-26T02:33:49.698Z,1020.99
2017-09-26T02:34:50.136Z,1021.00
2017-09-26T02:35:50.564Z,1020.99
2017-09-26T02:36:50.989Z,1020.97
2017-09-26T02:37:51.424Z,1020.96
2017-09-26T02:38:51.863Z,1020.95
2017-09-26T02:39:52.286Z,1020.97
2017-09-26T02:40:52.715Z,1020.98
2017-09-26T02:41:53.149Z,1021.03
2017-09-26T02:42:53.580Z,1021.01
2017-09-26T02:43:54.016Z,1021.03
2017-09-26T02:44:54.437Z,1021.02
2017-09-26T02:45:54.879Z,1021.03
2017-09-26T02:46:55.304Z,1021.01
2017-09-26T02:47:55.737Z,1021.04
2017-09-26T02:48:56.170Z,1021.05
2017-09-26T02:49:56.603Z,1021.01
2017-09-26T02:50:57.033Z,1021.00
2017-09-26T02:51:57.458Z,1021.02
2017-09-26T02:52:57.904Z,1021.02
2017-09-26T02:53:58.323Z,1021.05
2017-09-26T02:54:58.758Z,1021.02
2017-09-26T02:55:59.187Z,1021.06
2017-09-26T02:56:59.612Z,1021.02
2017-09-26T02:58:00.048Z,1021.06
2017-09-26T02:59:00.477Z,1021.07
2017-09-26T03:00:00.917Z,1021.03
2017-09-26T03:01:01.337Z,1020.99
2017-09-26T03:02:01.765Z,1021.03
2017-09-26T03:03:02.203Z,1021.01
2017-09-26T03:04:02.628Z,1021.01
2017-09-26T03:05:03.061Z,1020.94
2017-09-26T03:06:03.503Z,1021.00
2017-09-26T03:07:03.937Z,1021.00
2017-09-26T03:08:04.353Z,1021.01
2017-09-26T03:09:04.795Z,1021.02
2017-09-26T03:10:05.221Z,1021.03
2017-09-26T03:11:05.648Z,1020.99
2017-09-26T03:12:06.078Z,1020.98
2017-09-26T03:13:06.509Z,1020.97
2017-09-26T03:14:06.940Z,1020.99
2017-09-26T03:15:07.373Z,1020.98
2017-09-26T03:16:07.802Z,1020.95
2017-09-26T03:17:08.236Z,1020.93
2017-09-26T03:18:08.662Z,1020.92
2017-09-26T03:19:09.097Z,1020.95
2017-09-26T03:20:09.523Z,1020.94
2017-09-26T03:21:09.955Z,1020.92
2017-09-26T03:22:10.386Z,1020.93
2017-09-26T03:23:10.819Z,1020.94
2017-09-26T03:24:11.247Z,1020.90
2017-09-26T03:25:11.693Z,1020.94
2017-09-26T03:26:12.113Z,1020.93
2017-09-26T03:27:12.543Z,1020.93
2017-09-26T03:28:12.977Z,1020.90
2017-09-26T03:29:13.406Z,1020.93
2017-09-26T03:30:13.841Z,1020.93
2017-09-26T03:31:14.265Z,1020.93
2017-09-26T03:32:14.695Z,1020.94
2017-09-26T03:33:15.133Z,1020.96
2017-09-26T03:34:15.559Z,1020.90
2017-09-26T03:35:15.995Z,1020.92
2017-09-26T03:36:16.455Z,1020.98
2017-09-26T03:37:16.858Z,1020.97
2017-09-26T03:38:17.288Z,1020.97
2017-09-26T03:39:17.718Z,1020.95
2017-09-26T03:40:18.160Z,1020.95
2017-09-26T03:41:18.579Z,1020.99
2017-09-26T03:42:19.021Z,1020.95
2017-09-26T03:43:19.443Z,1020.97
2017-09-26T03:44:19.873Z,1020.98
2017-09-26T03:45:20.302Z,1021.00
2017-09-26T03:46:20.734Z,1021.04
2017-09-26T03:47:21.163Z,1021.02
2017-09-26T03:48:21.595Z,1021.03
2017-09-26T03:49:22.024Z,1021.01
2017-09-26T03:50:22.459Z,1021.03
2017-09-26T03:51:22.952Z,1021.07
2017-09-26T03:52:23.327Z,1021.06
2017-09-26T03:53:23.752Z,1021.07
2017-09-26T03:54:24.184Z,1021.10
2017-09-26T03:55:24.618Z,1021.12
2017-09-26T03:56:25.043Z,1021.15
2017-09-26T03:57:25.479Z,1021.11
2017-09-26T03:58:25.907Z,1021.16
2017-09-26T03:59:26.341Z,1021.14
2017-09-26T04:00:26.765Z,1021.20
2017-09-26T04:01:27.209Z,1021.22
2017-09-26T04:02:27.633Z,1021.28
2017-09-26T04:03:28.061Z,1021.28
2017-09-26T04:04:28.501Z,1021.28
2017-09-26T04:05:28.924Z,1021.28
2017-09-26T04:06:29.355Z,1021.31
2017-09-26T04:07:29.784Z,1021.27
2017-09-26T04:08:30.215Z,1021.32
2017-09-26T04:09:30.655Z,1021.28
2017-09-26T04:10:31.081Z,1021.33
2017-09-26T04:11:31.519Z,1021.32
2017-09-26T04:12:31.944Z,1021.30
2017-09-26T04:13:32.376Z,1021.33
2017-09-26T04:14:32.800Z,1021.31
2017-09-26T04:15:33.233Z,1021.30
2017-09-26T04:16:33.665Z,1021.31
2017-09-26T04:17:34.098Z,1021.30
2017-09-26T04:18:34.529Z,1021.32
2017-09-26T04:19:34.959Z,1021.31
2017-09-26T04:20:35.395Z,1021.30
2017-09-26T04:21:35.818Z,1021.29
2017-09-26T04:22:36.249Z,1021.31
2017-09-26T04:23:36.682Z,1021.31
2017-09-26T04:24:37.122Z,1021.32
2017-09-26T04:25:37.545Z,1021.28
2017-09-26T04:26:37.979Z,1021.30
2017-09-26T04:27:38.403Z,1021.30
2017-09-26T04:28:38.840Z,1021.34
2017-09-26T04:29:39.267Z,1021.39
2017-09-26T04:30:39.699Z,1021.37
2017-09-26T04:31:40.131Z,1021.39
2017-09-26T04:32:40.565Z,1021.37
2017-09-26T04:33:40.989Z,1021.40
2017-09-26T04:34:41.428Z,1021.38
2017-09-26T04:35:41.854Z,1021.43
2017-09-26T04:36:42.291Z,1021.45
2017-09-26T04:37:42.726Z,1021.38
2017-09-26T04:38:43.148Z,1021.41
2017-09-26T04:39:43.579Z,1021.44
2017-09-26T04:40:44.019Z,1021.41
2017-09-26T04:41:44.446Z,1021.47
2017-09-26T04:42:44.873Z,1021.44
2017-09-26T04:43:45.305Z,1021.46
2017-09-26T04:44:45.731Z,1021.49
2017-09-26T04:45:46.167Z,1021.53
2017-09-26T04:46:46.601Z,1021.50
2017-09-26T04:47:47.027Z,1021.50
2017-09-26T04:48:47.463Z,1021.48
2017-09-26T04:49:47.894Z,1021.57
2017-09-26T04:50:48.321Z,1021.53
2017-09-26T04:51:48.751Z,1021.56
2017-09-26T04:52:49.183Z,1021.57
2017-09-26T04:53:49.620Z,1021.54
2017-09-26T04:54:50.048Z,1021.54
2017-09-26T04:55:50.482Z,1021.51
2017-09-26T04:56:50.911Z,1021.53
2017-09-26T04:57:51.343Z,1021.53
2017-09-26T04:58:51.770Z,1021.61
2017-09-26T04:59:52.201Z,1021.60
2017-09-26T05:00:52.634Z,1021.50
2017-09-26T05:01:53.062Z,1021.60
2017-09-26T05:02:53.496Z,1021.61
2017-09-26T05:03:53.928Z,1021.64
2017-09-26T05:04:54.357Z,1021.62
2017-09-26T05:05:54.793Z,1021.61
2017-09-26T05:06:55.218Z,1021.66
2017-09-26T05:07:55.653Z,1021.63
2017-09-26T05:08:56.080Z,1021.62
2017-09-26T05:09:56.517Z,1021.63
2017-09-26T05:10:56.945Z,1021.58
2017-09-26T05:11:57.380Z,1021.64
2017-09-26T05:12:57.809Z,1021.64
2017-09-26T05:13:58.270Z,1021.66
2017-09-26T05:14:58.673Z,1021.68
2017-09-26T05:15:59.132Z,1021.72
2017-09-26T05:16:59.534Z,1021.74
2017-09-26T05:18:00.048Z,1021.72
2017-09-26T05:19:00.400Z,1021.77
2017-09-26T05:20:00.835Z,1021.80
2017-09-26T05:21:01.279Z,1021.83
2017-09-26T05:22:01.690Z,1021.84
2017-09-26T05:23:02.126Z,1021.84
2017-09-26T05:24:02.554Z,1021.81
2017-09-26T05:25:02.981Z,1021.82
2017-09-26T05:26:03.412Z,1021.82
2017-09-26T05:27:03.843Z,1021.84
2017-09-26T05:28:04.281Z,1021.80
2017-09-26T05:29:04.705Z,1021.85
2017-09-26T05:30:05.139Z,1021.85
2017-09-26T05:31:05.567Z,1021.84
2017-09-26T05:32:05.998Z,1021.89
2017-09-26T05:33:06.430Z,1021.92
2017-09-26T05:34:07.022Z,1021.85
2017-09-26T05:35:07.286Z,1021.87
2017-09-26T05:36:07.724Z,1021.87
2017-09-26T05:37:08.157Z,1021.91
2017-09-26T05:38:08.584Z,1021.87
2017-09-26T05:39:09.030Z,1021.84
2017-09-26T05:40:09.448Z,1021.88
2017-09-26T05:41:09.878Z,1021.90
2017-09-26T05:42:10.316Z,1021.87
2017-09-26T05:43:10.752Z,1021.90
2017-09-26T05:44:11.175Z,1021.92
2017-09-26T05:45:11.604Z,1021.90
2017-09-26T05:46:12.043Z,1021.90
2017-09-26T05:47:12.467Z,1021.90
2017-09-26T05:48:12.903Z,1021.90
2017-09-26T05:49:13.331Z,1021.89
2017-09-26T05:50:13.760Z,1021.92
2017-09-26T05:51:14.192Z,1021.91
2017-09-26T05:52:14.627Z,1021.92
2017-09-26T05:53:15.050Z,1021.95
2017-09-26T05:54:15.485Z,1021.97
2017-09-26T05:55:15.917Z,1021.98
2017-09-26T05:56:16.349Z,1021.98
2017-09-26T05:57:16.777Z,1021.99
2017-09-26T05:58:17.210Z,1022.05
2017-09-26T05:59:17.639Z,1022.06
2017-09-26T06:00:18.073Z,1022.08
2017-09-26T06:01:18.503Z,1022.08
2017-09-26T06:02:18.934Z,1022.12
2017-09-26T06:03:19.366Z,1022.15
2017-09-26T06:04:19.807Z,1022.14
2017-09-26T06:05:20.230Z,1022.14
2017-09-26T06:06:20.669Z,1022.16
2017-09-26T06:07:21.096Z,1022.13
2017-09-26T06:08:21.527Z,1022.13
2017-09-26T06:09:21.954Z,1022.13
2017-09-26T06:10:22.428Z,1022.14
2017-09-26T06:11:22.820Z,1022.10
2017-09-26T06:12:23.249Z,1022.15
2017-09-26T06:13:23.679Z,1022.14
2017-09-26T06:14:24.112Z,1022.16
2017-09-26T06:15:24.546Z,1022.10
2017-09-26T06:16:24.978Z,1022.10
2017-09-26T06:17:25.406Z,1022.12
2017-09-26T06:18:25.837Z,1022.06
2017-09-26T06:19:26.270Z,1022.11
2017-09-26T06:20:26.704Z,1022.06
2017-09-26T06:21:27.134Z,1022.06
2017-09-26T06:22:27.564Z,1022.04
2017-09-26T06:23:27.999Z,1022.08
2017-09-26T06:24:28.429Z,1022.10
2017-09-26T06:25:28.861Z,1022.08
2017-09-26T06:26:29.292Z,1022.11
2017-09-26T06:27:29.735Z,1022.11
2017-09-26T06:28:30.159Z,1022.13
2017-09-26T06:29:30.595Z,1022.14
2017-09-26T06:30:31.020Z,1022.15
2017-09-26T06:31:31.453Z,1022.10
2017-09-26T06:32:31.888Z,1022.09
2017-09-26T06:33:32.323Z,1022.12
2017-09-26T06:34:32.747Z,1022.16
2017-09-26T06:35:33.179Z,1022.21
2017-09-26T06:36:33.613Z,1022.19
2017-09-26T06:37:34.043Z,1022.18
2017-09-26T06:38:34.475Z,1022.16
2017-09-26T06:39:34.912Z,1022.18
2017-09-26T06:40:35.344Z,1022.17
2017-09-26T06:41:35.775Z,1022.13
2017-09-26T06:42:36.210Z,1022.18
2017-09-26T06:43:36.673Z,1022.18
2017-09-26T06:44:37.075Z,1022.19
2017-09-26T06:45:37.501Z,1022.21
2017-09-26T06:46:37.941Z,1022.23
2017-09-26T06:47:38.371Z,1022.24
2017-09-26T06:48:38.821Z,1022.28
2017-09-26T06:49:39.232Z,1022.30
2017-09-26T06:50:39.667Z,1022.30
2017-09-26T06:51:40.096Z,1022.25
2017-09-26T06:52:40.567Z,1022.25
2017-09-26T06:53:40.960Z,1022.26
2017-09-26T06:54:41.392Z,1022.25
2017-09-26T06:55:41.828Z,1022.25
2017-09-26T06:56:42.263Z,1022.22
2017-09-26T06:57:42.690Z,1022.23
2017-09-26T06:58:43.120Z,1022.31
2017-09-26T06:59:43.560Z,1022.29
2017-09-26T07:00:43.988Z,1022.31
2017-09-26T07:01:44.418Z,1022.32
2017-09-26T07:02:44.850Z,1022.34
2017-09-26T07:03:45.284Z,1022.35
2017-09-26T07:04:45.753Z,1022.36
2017-09-26T07:05:46.156Z,1022.35
2017-09-26T07:06:46.581Z,1022.36
2017-09-26T07:07:47.018Z,1022.38
2017-09-26T07:08:47.448Z,1022.33
2017-09-26T07:09:47.878Z,1022.37
2017-09-26T07:10:48.336Z,1022.40
2017-09-26T07:11:48.742Z,1022.42
2017-09-26T07:12:49.176Z,1022.39
2017-09-26T07:13:49.607Z,1022.46
2017-09-26T07:14:50.046Z,1022.46
2017-09-26T07:15:50.473Z,1022.39
2017-09-26T07:16:50.906Z,1022.45
2017-09-26T07:17:51.339Z,1022.43
2017-09-26T07:18:51.774Z,1022.45
2017-09-26T07:19:52.208Z,1022.44
2017-09-26T07:20:52.641Z,1022.45
2017-09-26T07:21:53.073Z,1022.46
2017-09-26T07:22:53.506Z,1022.51
2017-09-26T07:23:53.938Z,1022.50
2017-09-26T07:24:54.373Z,1022.50
2017-09-26T07:25:54.805Z,1022.52
2017-09-26T07:26:55.239Z,1022.56
2017-09-26T07:27:55.673Z,1022.55
2017-09-26T07:28:56.107Z,1022.60
2017-09-26T07:29:56.539Z,1022.59
2017-09-26T07:30:56.974Z,1022.58
2017-09-26T07:31:57.425Z,1022.64
2017-09-26T07:32:57.843Z,1022.60
2017-09-26T07:33:58.280Z,1022.66
2017-09-26T07:34:58.709Z,1022.60
2017-09-26T07:35:59.141Z,1022.60
2017-09-26T07:36:59.576Z,1022.62
2017-09-26T07:38:00.012Z,1022.61
2017-09-26T07:39:00.444Z,1022.65
2017-09-26T07:40:00.884Z,1022.64
2017-09-26T07:41:01.310Z,1022.67
2017-09-26T07:42:01.753Z,1022.63
2017-09-26T07:43:02.179Z,1022.63
2017-09-26T07:44:02.610Z,1022.65
2017-09-26T07:45:03.068Z,1022.60
2017-09-26T07:46:03.478Z,1022.65
2017-09-26T07:47:03.913Z,1022.68
2017-09-26T07:48:04.349Z,1022.64
2017-09-26T07:49:04.778Z,1022.71
2017-09-26T07:50:05.213Z,1022.68
2017-09-26T07:51:05.649Z,1022.68
2017-09-26T07:52:06.082Z,1022.68
2017-09-26T07:53:06.514Z,1022.71
2017-09-26T07:54:06.948Z,1022.70
2017-09-26T07:55:07.384Z,1022.67
2017-09-26T07:56:07.814Z,1022.71
2017-09-26T07:57:08.255Z,1022.70
2017-09-26T07:58:08.680Z,1022.74
2017-09-26T07:59:09.116Z,1022.70
2017-09-26T08:00:09.556Z,1022.73
2017-09-26T08:01:09.987Z,1022.66
2017-09-26T08:02:10.420Z,1022.62
2017-09-26T08:03:10.853Z,1022.69
2017-09-26T08:04:11.286Z,1022.67
2017-09-26T08:05:11.721Z,1022.66
2017-09-26T08:06:12.154Z,1022.66
2017-09-26T08:07:12.588Z,1022.70
2017-09-26T08:08:13.025Z,1022.70
2017-09-26T08:09:13.457Z,1022.69
2017-09-26T08:10:13.893Z,1022.66
2017-09-26T08:11:14.327Z,1022.69
2017-09-26T08:12:14.764Z,1022.68
2017-09-26T08:13:15.198Z,1022.68
2017-09-26T08:14:15.631Z,1022.72
2017-09-26T08:15:16.063Z,1022.68
2017-09-26T08:16:16.503Z,1022.69
2017-09-26T08:17:16.934Z,1022.74
2017-09-26T08:18:17.371Z,1022.73
2017-09-26T08:19:17.805Z,1022.74
2017-09-26T08:20:18.246Z,1022.76
2017-09-26T08:21:18.676Z,1022.81
2017-09-26T08:22:19.119Z,1022.79
2017-09-26T08:23:19.545Z,1022.78
2017-09-26T08:24:19.981Z,1022.77
2017-09-26T08:25:20.430Z,1022.78
2017-09-26T08:26:20.851Z,1022.81
2017-09-26T08:27:21.285Z,1022.80
2017-09-26T08:28:21.721Z,1022.79
2017-09-26T08:29:22.156Z,1022.78
2017-09-26T08:30:22.595Z,1022.79
2017-09-26T08:31:23.032Z,1022.76
2017-09-26T08:32:23.460Z,1022.78
2017-09-26T08:33:23.904Z,1022.79
2017-09-26T08:34:24.333Z,1022.78
2017-09-26T08:35:24.774Z,1022.78
2017-09-26T08:36:25.211Z,1022.80
2017-09-26T08:37:25.642Z,1022.81
2017-09-26T08:38:26.081Z,1022.80
2017-09-26T08:39:26.516Z,1022.81
2017-09-26T08:40:26.967Z,1022.80
2017-09-26T08:41:27.392Z,1022.83
2017-09-26T08:42:27.829Z,1022.82
2017-09-26T08:43:28.270Z,1022.80
2017-09-26T08:44:28.702Z,1022.81
2017-09-26T08:45:29.141Z,1022.81
2017-09-26T08:46:29.580Z,1022.80
2017-09-26T08:47:30.017Z,1022.80
2017-09-26T08:48:30.456Z,1022.84
2017-09-26T08:49:30.892Z,1022.82
2017-09-26T08:50:31.341Z,1022.82
2017-09-26T08:51:31.772Z,1022.83
2017-09-26T08:52:32.207Z,1022.79
2017-09-26T08:53:32.645Z,1022.84
2017-09-26T08:54:33.124Z,1022.86
2017-09-26T08:55:33.524Z,1022.86
2017-09-26T08:56:33.959Z,1022.88
2017-09-26T08:57:34.405Z,1022.88
2017-09-26T08:58:34.841Z,1022.89
2017-09-26T08:59:35.275Z,1022.94
2017-09-26T09:00:35.714Z,1022.95
2017-09-26T09:01:36.154Z,1022.94
2017-09-26T09:02:36.586Z,1022.92
2017-09-26T09:03:37.024Z,1022.91
2017-09-26T09:04:37.465Z,1022.93
2017-09-26T09:05:37.901Z,1022.94
2017-09-26T09:06:38.339Z,1022.92
2017-09-26T09:07:38.785Z,1022.95
2017-09-26T09:08:39.213Z,1022.97
2017-09-26T09:09:39.652Z,1022.92
2017-09-26T09:10:40.090Z,1022.94
2017-09-26T09:11:40.536Z,1022.97
2017-09-26T09:12:40.968Z,1022.95
2017-09-26T09:13:41.413Z,1022.97
2017-09-26T09:14:41.835Z,1022.96
2017-09-26T09:15:42.969Z,1022.95
2017-09-26T09:16:42.722Z,1022.94
2017-09-26T09:17:43.155Z,1022.91
2017-09-26T09:18:43.607Z,1022.94
2017-09-26T09:19:44.023Z,1022.95
2017-09-26T09:20:44.460Z,1023.01
2017-09-26T09:21:44.968Z,1022.99
2017-09-26T09:22:45.333Z,1022.92
2017-09-26T09:23:45.787Z,1022.95
2017-09-26T09:24:46.206Z,1022.96
2017-09-26T09:25:46.657Z,1022.95
2017-09-26T09:26:47.080Z,1022.97
2017-09-26T09:27:47.525Z,1022.97
2017-09-26T09:28:47.957Z,1022.94
2017-09-26T09:29:48.387Z,1022.98
2017-09-26T09:30:48.825Z,1022.99
2017-09-26T09:31:49.261Z,1022.93
2017-09-26T09:32:49.695Z,1023.00
2017-09-26T09:33:50.136Z,1022.96
2017-09-26T09:34:50.567Z,1022.95
2017-09-26T09:35:51.010Z,1022.94
2017-09-26T09:36:51.440Z,1022.95
2017-09-26T09:37:51.879Z,1022.89
2017-09-26T09:38:52.329Z,1022.89
2017-09-26T09:39:52.748Z,1022.94
2017-09-26T09:40:53.192Z,1022.95
2017-09-26T09:41:53.627Z,1022.99
2017-09-26T09:42:54.065Z,1022.99
2017-09-26T09:43:54.504Z,1023.00
2017-09-26T09:44:54.935Z,1023.00
2017-09-26T09:45:55.375Z,1022.98
2017-09-26T09:46:55.808Z,1023.01
2017-09-26T09:47:56.246Z,1023.00
2017-09-26T09:48:56.690Z,1023.03
2017-09-26T09:49:57.122Z,1023.04
2017-09-26T09:50:57.559Z,1023.03
2017-09-26T09:51:58.003Z,1023.04
2017-09-26T09:52:58.436Z,1023.04
2017-09-26T09:53:58.874Z,1022.97
2017-09-26T09:54:59.310Z,1022.97
2017-09-26T09:55:59.748Z,1022.99
2017-09-26T09:57:00.188Z,1022.96
2017-09-26T09:58:00.629Z,1022.98
2017-09-26T09:59:01.069Z,1022.97
2017-09-26T10:00:01.502Z,1022.97
2017-09-26T10:01:01.944Z,1022.97
2017-09-26T10:02:02.381Z,1022.96
2017-09-26T10:03:02.817Z,1022.98
2017-09-26T10:04:03.266Z,1022.96
2017-09-26T10:05:03.693Z,1022.99
2017-09-26T10:06:04.138Z,1022.97
2017-09-26T10:07:04.570Z,1022.97
2017-09-26T10:08:05.021Z,1023.00
2017-09-26T10:09:05.455Z,1023.03
2017-09-26T10:10:05.890Z,1023.03
2017-09-26T10:11:06.382Z,1022.98
2017-09-26T10:12:06.778Z,1023.04
2017-09-26T10:13:07.221Z,1023.07
2017-09-26T10:14:07.648Z,1023.04
2017-09-26T10:15:08.104Z,1023.05
2017-09-26T10:16:08.526Z,1023.05
2017-09-26T10:17:08.991Z,1023.04
2017-09-26T10:18:09.407Z,1023.01
2017-09-26T10:19:10.017Z,1023.04
2017-09-26T10:20:10.276Z,1023.02
2017-09-26T10:21:10.725Z,1023.00
2017-09-26T10:22:11.160Z,1023.04
2017-09-26T10:23:11.601Z,1023.02
2017-09-26T10:24:12.041Z,1023.00
2017-09-26T10:25:12.480Z,1023.01
2017-09-26T10:26:12.917Z,1023.04
2017-09-26T10:27:13.352Z,1023.02
2017-09-26T10:28:13.799Z,1022.99
2017-09-26T10:29:14.233Z,1023.01
2017-09-26T10:30:14.667Z,1022.94
2017-09-26T10:31:15.111Z,1022.95
2017-09-26T10:32:15.543Z,1022.98
2017-09-26T10:33:15.985Z,1022.92
2017-09-26T10:34:16.424Z,1022.96
2017-09-26T10:35:16.868Z,1022.94
2017-09-26T10:36:17.315Z,1022.95
2017-09-26T10:37:17.741Z,1022.93
2017-09-26T10:38:18.176Z,1022.94
2017-09-26T10:39:18.615Z,1022.99
2017-09-26T10:40:19.054Z,1023.05
2017-09-26T10:41:19.499Z,1023.02
2017-09-26T10:42:19.948Z,1023.03
2017-09-26T10:43:20.377Z,1022.98
2017-09-26T10:44:20.812Z,1023.00
2017-09-26T10:45:21.250Z,1022.98
2017-09-26T10:46:21.691Z,1023.02
2017-09-26T10:47:22.133Z,1023.01
2017-09-26T10:48:22.570Z,1023.07
2017-09-26T10:49:23.010Z,1023.05
2017-09-26T10:50:23.450Z,1023.05
2017-09-26T10:51:23.899Z,1023.04
2017-09-26T10:52:24.329Z,1023.02
2017-09-26T10:53:24.777Z,1023.02
2017-09-26T10:54:25.210Z,1023.02
2017-09-26T10:55:25.651Z,1023.00
2017-09-26T10:56:26.094Z,1023.03
2017-09-26T10:57:26.532Z,1022.99
2017-09-26T10:58:26.996Z,1023.00
2017-09-26T10:59:27.409Z,1022.99
2017-09-26T11:00:27.846Z,1023.00
2017-09-26T11:01:28.292Z,1023.02
2017-09-26T11:02:28.731Z,1022.98
2017-09-26T11:03:29.170Z,1023.00
2017-09-26T11:04:29.623Z,1023.02
2017-09-26T11:05:30.051Z,1023.02
2017-09-26T11:06:30.501Z,1023.02
2017-09-26T11:07:30.930Z,1023.04
2017-09-26T11:08:31.370Z,1023.04
2017-09-26T11:09:31.810Z,1023.07
2017-09-26T11:10:32.255Z,1023.04
2017-09-26T11:11:32.700Z,1023.06
2017-09-26T11:12:33.135Z,1023.06
2017-09-26T11:13:33.573Z,1023.08
2017-09-26T11:14:34.027Z,1023.02
2017-09-26T11:15:34.449Z,1023.09
2017-09-26T11:16:34.888Z,1023.04
2017-09-26T11:17:35.328Z,1023.06
2017-09-26T11:18:35.767Z,1023.04
2017-09-26T11:19:36.204Z,1023.01
2017-09-26T11:20:36.639Z,1023.05
2017-09-26T11:21:37.079Z,1023.03
2017-09-26T11:22:37.515Z,1023.04
2017-09-26T11:23:37.957Z,1023.01
2017-09-26T11:24:38.420Z,1023.05
2017-09-26T11:25:38.834Z,1023.02
2017-09-26T11:26:39.274Z,1023.06
2017-09-26T11:27:39.712Z,1023.01
2017-09-26T11:28:40.156Z,1023.01
2017-09-26T11:29:40.586Z,1023.00
2017-09-26T11:30:41.028Z,1023.02
2017-09-26T11:31:41.463Z,1023.05
2017-09-26T11:32:41.902Z,1023.02
2017-09-26T11:33:42.341Z,1023.00
2017-09-26T11:34:42.791Z,1023.03
2017-09-26T11:35:43.211Z,1022.98
2017-09-26T11:36:43.657Z,1023.02
2017-09-26T11:37:44.104Z,1023.01
2017-09-26T11:38:44.530Z,1023.03
2017-09-26T11:39:44.970Z,1023.06
2017-09-26T11:40:45.407Z,1023.08
2017-09-26T11:41:45.841Z,1023.03
2017-09-26T11:42:46.288Z,1022.98
2017-09-26T11:43:46.744Z,1023.05
2017-09-26T11:44:47.160Z,1023.05
2017-09-26T11:45:47.597Z,1023.02
2017-09-26T11:46:48.039Z,1023.02
2017-09-26T11:47:48.469Z,1023.03
2017-09-26T11:48:48.914Z,1023.00
2017-09-26T11:49:49.388Z,1023.01
2017-09-26T11:50:49.797Z,1022.99
2017-09-26T11:51:50.228Z,1022.98
2017-09-26T11:52:50.662Z,1023.01
2017-09-26T11:53:51.101Z,1022.96
2017-09-26T11:54:51.537Z,1022.99
2017-09-26T11:55:51.984Z,1023.00
2017-09-26T11:56:52.427Z,1022.98
2017-09-26T11:57:52.865Z,1022.97
2017-09-26T11:58:53.293Z,1022.99
2017-09-26T11:59:53.725Z,1022.95
2017-09-26T12:00:54.178Z,1022.97
2017-09-26T12:01:54.619Z,1022.98
2017-09-26T12:02:55.092Z,1022.98
2017-09-26T12:03:55.490Z,1022.99
2017-09-26T12:04:55.918Z,1023.00
2017-09-26T12:05:56.379Z,1022.97
2017-09-26T12:06:56.816Z,1022.95
2017-09-26T12:07:57.233Z,1022.98
2017-09-26T12:08:57.674Z,1023.02
2017-09-26T12:09:58.138Z,1023.03
2017-09-26T12:10:58.769Z,1023.08